Time;durP1;ratioP1;P1;durP2;ratioP2;P2;SDS_P1;SDS_P2;PMS_P1;PMS_P2;Temp;Humidity;BMP_temperature;BMP_pressure;BME280_temperature;BME280_humidity;BME280_pressure;Samples;Min_cycle;Max_cycle;Signal;HPM_P1;HPM_P2
2022/11/15 00:01:58;;;;;;;26.83;24.83;;;9.20;99.90;;;;;;4924225;29;20443;-78
2022/11/15 00:04:25;;;;;;;28.73;26.17;;;9.20;99.90;;;;;;4922846;29;20438;-78
2022/11/15 00:06:51;;;;;;;26.87;24.30;;;9.20;99.90;;;;;;4924386;29;20456;-78
2022/11/15 00:09:18;;;;;;;23.60;21.80;;;9.20;99.90;;;;;;4924306;29;20446;-79
2022/11/15 00:11:46;;;;;;;23.97;22.17;;;9.20;99.90;;;;;;4922867;29;20449;-79
2022/11/15 00:14:13;;;;;;;27.47;24.87;;;9.30;99.90;;;;;;4923801;29;20449;-79
2022/11/15 00:16:40;;;;;;;27.03;24.70;;;9.30;99.90;;;;;;4924607;29;20453;-79
2022/11/15 00:19:06;;;;;;;28.27;25.53;;;9.40;99.90;;;;;;4922577;29;20486;-80
2022/11/15 00:21:33;;;;;;;26.77;24.47;;;9.40;99.90;;;;;;4923775;29;20468;-79
2022/11/15 00:24:00;;;;;;;28.43;26.03;;;9.70;99.90;;;;;;4924286;29;20453;-80
2022/11/15 00:26:26;;;;;;;27.70;25.60;;;9.40;99.90;;;;;;4922709;29;20469;-79
2022/11/15 00:28:55;;;;;;;28.97;26.03;;;9.40;99.90;;;;;;4923861;29;20434;-79
2022/11/15 00:31:21;;;;;;;27.03;25.00;;;9.30;99.90;;;;;;4924430;29;20451;-79
2022/11/15 00:33:48;;;;;;;27.50;25.27;;;9.40;99.90;;;;;;4922645;29;20473;-78
2022/11/15 00:36:15;;;;;;;27.00;24.70;;;9.30;99.90;;;;;;4923331;29;20453;-78
2022/11/15 00:38:41;;;;;;;29.50;27.00;;;9.30;99.90;;;;;;4924411;29;20838;-78
2022/11/15 00:41:08;;;;;;;28.33;25.80;;;9.20;99.90;;;;;;4922774;29;20454;-78
2022/11/15 00:43:35;;;;;;;28.83;26.03;;;9.20;99.90;;;;;;4923276;29;20445;-79
2022/11/15 00:46:03;;;;;;;25.60;23.80;;;9.20;99.90;;;;;;4924288;29;20682;-80
2022/11/15 00:48:31;;;;;;;24.93;22.70;;;9.10;99.90;;;;;;4922537;29;20450;-80
2022/11/15 00:50:58;;;;;;;24.60;22.50;;;9.10;99.90;;;;;;4922545;29;20449;-80
2022/11/15 00:53:25;;;;;;;24.27;22.53;;;9.00;99.90;;;;;;4923968;29;21028;-80
2022/11/15 00:55:51;;;;;;;26.20;23.60;;;9.00;99.90;;;;;;4922500;29;20473;-82
2022/11/15 00:58:18;;;;;;;26.10;23.70;;;9.00;99.90;;;;;;4922214;29;20488;-76
2022/11/15 01:00:45;;;;;;;28.93;26.27;;;8.90;99.90;;;;;;4923816;29;20442;-77
2022/11/15 01:03:13;;;;;;;28.17;25.77;;;9.00;99.90;;;;;;4922663;29;20940;-77
2022/11/15 01:05:40;;;;;;;26.50;24.60;;;9.70;99.90;;;;;;4922268;29;20460;-77
2022/11/15 01:08:06;;;;;;;26.70;24.40;;;8.90;99.90;;;;;;4923665;29;20441;-76
2022/11/15 01:10:34;;;;;;;28.87;26.20;;;8.90;99.90;;;;;;4922487;29;20443;-77
2022/11/15 01:13:01;;;;;;;28.90;26.30;;;8.90;99.90;;;;;;4921604;29;20936;-76
2022/11/15 01:15:28;;;;;;;29.77;27.10;;;8.80;99.90;;;;;;4921873;29;20454;-77
2022/11/15 01:17:55;;;;;;;30.00;27.50;;;8.70;99.90;;;;;;4922640;29;20485;-77
2022/11/15 01:20:23;;;;;;;28.83;26.53;;;8.70;99.90;;;;;;4923651;29;20518;-77
2022/11/15 01:22:50;;;;;;;30.03;27.53;;;8.90;99.90;;;;;;4921880;29;20447;-77
2022/11/15 01:25:16;;;;;;;29.63;27.10;;;8.60;99.90;;;;;;4922182;29;20446;-77
2022/11/15 01:27:43;;;;;;;28.47;26.00;;;8.60;99.90;;;;;;4923523;29;20442;-77
2022/11/15 03:17:43;;;;;;;29.90;27.43;;;7.60;99.90;;;;;;5903762;23;20433;-86
2022/11/15 03:20:13;;;;;;;28.93;26.40;;;7.70;99.90;;;;;;4954132;29;20452;-86
2022/11/15 03:49:30;;;;;;;28.37;26.17;;;9.00;99.90;;;;;;4743319;30;20426;-89
2022/11/15 03:51:58;;;;;;;29.70;26.63;;;7.60;99.90;;;;;;4776289;29;20480;-86
2022/11/15 03:54:25;;;;;;;29.67;27.07;;;7.60;99.90;;;;;;4879057;29;20978;-86
2022/11/15 03:56:52;;;;;;;26.20;23.90;;;7.50;99.90;;;;;;4935253;29;20441;-88
2022/11/15 03:59:19;;;;;;;27.80;25.60;;;7.60;99.90;;;;;;4924429;29;21026;-88
2022/11/15 04:02:00;;;;;;;28.23;25.30;;;7.60;99.90;;;;;;4929768;29;20446;-91
2022/11/15 04:04:35;;;;;;;26.47;24.37;;;8.40;99.90;;;;;;4926235;29;20442;-89
2022/11/15 04:07:02;;;;;;;26.73;24.37;;;7.70;99.90;;;;;;4934013;29;20990;-88
2022/11/15 04:09:29;;;;;;;27.93;26.00;;;7.50;99.90;;;;;;4931468;29;20448;-87
2022/11/15 04:11:56;;;;;;;28.00;25.80;;;7.90;99.90;;;;;;4922607;29;20914;-86
2022/11/15 04:14:22;;;;;;;29.70;27.40;;;7.30;99.90;;;;;;4922910;29;20446;-81
2022/11/15 04:16:49;;;;;;;29.80;27.30;;;7.50;99.90;;;;;;4918456;29;20463;-84
2022/11/15 04:24:46;;;;;;;33.23;30.00;;;7.40;99.90;;;;;;4911881;29;20441;-87
2022/11/15 04:27:13;;;;;;;29.70;27.00;;;7.30;99.90;;;;;;4914672;29;20797;-87
2022/11/15 04:29:40;;;;;;;29.60;27.37;;;7.10;99.90;;;;;;4914856;29;20454;-87
2022/11/15 04:32:09;;;;;;;27.57;25.37;;;7.30;99.90;;;;;;4915084;29;20489;-88
2022/11/15 04:34:36;;;;;;;28.63;26.10;;;7.40;99.90;;;;;;4915363;29;20458;-87
2022/11/15 04:37:13;;;;;;;30.10;27.33;;;7.50;99.90;;;;;;4915145;29;20493;-85
2022/11/15 04:39:40;;;;;;;30.37;27.80;;;7.30;99.90;;;;;;4914594;29;20490;-86
2022/11/15 04:42:07;;;;;;;28.90;26.50;;;7.40;99.90;;;;;;4914914;29;20477;-87
2022/11/15 04:44:34;;;;;;;28.20;26.00;;;7.40;99.90;;;;;;4914942;29;20454;-87
2022/11/15 04:47:01;;;;;;;29.70;26.90;;;7.40;99.90;;;;;;4917973;29;20454;-88
2022/11/15 04:49:28;;;;;;;27.53;25.20;;;8.20;99.90;;;;;;4914711;29;20450;-87
2022/11/15 04:51:55;;;;;;;30.23;27.93;;;7.40;99.90;;;;;;4915518;29;20454;-87
2022/11/15 04:54:23;;;;;;;30.00;27.60;;;7.30;99.90;;;;;;4922938;29;20457;-87
2022/11/15 04:56:52;;;;;;;30.50;27.63;;;7.20;99.90;;;;;;4937875;29;20454;-89
2022/11/15 05:05:21;;;;;;;30.07;27.33;;;7.10;99.90;;;;;;4920341;29;20516;-88
2022/11/15 05:07:48;;;;;;;34.93;31.77;;;7.10;99.90;;;;;;4914855;29;20518;-86
2022/11/15 05:10:16;;;;;;;34.60;31.80;;;7.10;99.90;;;;;;4914783;29;20458;-86
2022/11/15 05:12:43;;;;;;;33.37;30.67;;;7.10;99.90;;;;;;4914536;29;20454;-87
2022/11/15 05:15:11;;;;;;;34.10;30.73;;;7.30;99.90;;;;;;4913952;29;20453;-85
2022/11/15 05:17:37;;;;;;;33.80;31.00;;;7.10;99.90;;;;;;4913697;29;20474;-85
2022/11/15 05:20:05;;;;;;;34.47;31.40;;;7.00;99.90;;;;;;4913934;29;20588;-84
2022/11/15 05:22:32;;;;;;;30.87;28.47;;;7.10;99.90;;;;;;4914462;29;20450;-85
2022/11/15 05:24:58;;;;;;;34.47;31.00;;;7.10;99.90;;;;;;4914523;29;20462;-86
2022/11/15 05:27:27;;;;;;;34.23;31.23;;;7.10;99.90;;;;;;4913998;29;20525;-84
2022/11/15 05:29:53;;;;;;;33.50;30.80;;;7.00;99.90;;;;;;4913918;29;20451;-80
2022/11/15 05:32:21;;;;;;;34.43;31.30;;;7.00;99.90;;;;;;4913784;29;20999;-86
2022/11/15 05:34:48;;;;;;;31.50;28.83;;;7.00;99.90;;;;;;4913731;29;20460;-84
2022/11/15 05:37:15;;;;;;;32.63;29.70;;;6.90;99.90;;;;;;4913694;29;20959;-83
2022/11/15 05:39:42;;;;;;;29.17;26.90;;;6.90;99.90;;;;;;4913691;29;20486;-83
2022/11/15 05:42:12;;;;;;;30.23;27.73;;;6.90;99.90;;;;;;4913666;29;20458;-84
2022/11/15 05:44:43;;;;;;;30.20;27.07;;;6.90;99.90;;;;;;4913737;29;20450;-84
2022/11/15 05:47:17;;;;;;;30.23;27.63;;;6.90;99.90;;;;;;4913890;29;20499;-83
2022/11/15 05:49:45;;;;;;;29.80;27.20;;;6.90;99.90;;;;;;4913979;29;20450;-83
2022/11/15 05:52:17;;;;;;;28.10;25.87;;;7.00;99.90;;;;;;4913819;29;20919;-81
2022/11/15 05:54:44;;;;;;;31.00;28.50;;;7.00;99.90;;;;;;4913602;29;20466;-82
2022/11/15 05:57:11;;;;;;;28.50;26.40;;;7.00;99.90;;;;;;4913596;29;20450;-83
2022/11/15 05:59:40;;;;;;;26.83;24.90;;;7.10;99.90;;;;;;4913132;29;20995;-82
2022/11/15 06:02:07;;;;;;;24.10;21.97;;;7.10;99.90;;;;;;4912861;29;20459;-82
2022/11/15 06:04:34;;;;;;;26.43;24.30;;;7.20;99.90;;;;;;4913261;29;20461;-81
2022/11/15 06:07:01;;;;;;;26.73;24.67;;;7.20;99.90;;;;;;4913763;29;20455;-82
2022/11/15 06:09:27;;;;;;;27.40;25.33;;;7.30;99.90;;;;;;4913479;29;20453;-83
2022/11/15 06:11:54;;;;;;;27.93;25.77;;;7.30;99.90;;;;;;4917962;29;20450;-84
2022/11/15 06:14:21;;;;;;;28.40;26.13;;;7.20;99.90;;;;;;4917668;29;21157;-84
2022/11/15 06:16:49;;;;;;;31.97;29.13;;;7.20;99.90;;;;;;4914045;29;21002;-78
2022/11/15 06:19:16;;;;;;;30.27;27.77;;;7.20;99.90;;;;;;4914257;29;20484;-81
2022/11/15 06:21:43;;;;;;;32.30;29.60;;;7.20;99.90;;;;;;4916705;29;20532;-81
2022/11/15 06:24:10;;;;;;;29.00;26.57;;;7.20;99.90;;;;;;4915153;29;20454;-80
2022/11/15 06:26:36;;;;;;;31.07;28.57;;;7.20;99.90;;;;;;4916340;29;20465;-80
2022/11/15 06:29:04;;;;;;;28.20;25.77;;;7.10;99.90;;;;;;4914204;29;20454;-79
2022/11/15 06:31:30;;;;;;;27.63;25.63;;;7.10;99.90;;;;;;4913795;29;20496;-80
2022/11/15 06:33:59;;;;;;;27.50;25.10;;;7.00;99.90;;;;;;4913524;29;20459;-79
2022/11/15 06:36:25;;;;;;;28.93;26.67;;;7.10;99.90;;;;;;4913248;29;20465;-78
2022/11/15 06:38:52;;;;;;;28.90;26.50;;;7.10;99.90;;;;;;4913051;29;20495;-79
2022/11/15 06:41:20;;;;;;;28.33;26.10;;;7.10;99.90;;;;;;4913999;29;20987;-78
2022/11/15 06:43:47;;;;;;;30.30;27.60;;;7.10;99.90;;;;;;4913577;29;20557;-79
2022/11/15 06:46:14;;;;;;;29.87;27.60;;;7.10;99.90;;;;;;4913613;29;20830;-79
2022/11/15 06:48:41;;;;;;;27.33;25.17;;;7.10;99.90;;;;;;4913207;29;20442;-79
2022/11/15 06:51:09;;;;;;;32.27;29.10;;;7.10;99.90;;;;;;4913087;29;20689;-78
2022/11/15 06:53:36;;;;;;;29.57;26.20;;;7.10;99.90;;;;;;4914882;29;20464;-83
2022/11/15 06:56:04;;;;;;;28.53;26.30;;;7.10;99.90;;;;;;4915582;29;20558;-81
2022/11/15 06:58:31;;;;;;;27.97;25.57;;;7.20;99.90;;;;;;4913692;29;20454;-81
2022/11/15 07:01:02;;;;;;;28.67;26.40;;;7.20;99.90;;;;;;4915879;29;20453;-77
2022/11/15 07:03:29;;;;;;;27.80;25.80;;;7.40;99.90;;;;;;4913960;29;20461;-77
2022/11/15 07:05:57;;;;;;;28.43;26.17;;;7.40;99.90;;;;;;4913304;29;20455;-78
2022/11/15 07:08:29;;;;;;;28.27;25.93;;;7.70;99.90;;;;;;4919929;29;20457;-78
2022/11/15 07:10:55;;;;;;;26.10;24.30;;;7.90;99.90;;;;;;4920526;29;20461;-79
2022/11/15 07:13:25;;;;;;;26.17;23.83;;;7.90;99.90;;;;;;4922743;29;20459;-77
2022/11/15 07:15:52;;;;;;;26.10;24.40;;;8.00;99.90;;;;;;4924685;29;20737;-79
2022/11/15 07:18:19;;;;;;;25.53;23.53;;;8.00;99.90;;;;;;4924550;29;20466;-78
2022/11/15 07:20:45;;;;;;;25.53;23.63;;;8.20;99.90;;;;;;4925875;29;20490;-79
2022/11/15 07:23:12;;;;;;;24.87;22.80;;;8.20;99.90;;;;;;4924237;29;20960;-79
2022/11/15 07:25:40;;;;;;;26.77;24.70;;;8.30;99.90;;;;;;4925037;29;20466;-79
2022/11/15 07:28:07;;;;;;;26.43;23.90;;;8.30;99.90;;;;;;4923970;29;20457;-79
2022/11/15 07:30:33;;;;;;;26.20;23.63;;;8.30;99.90;;;;;;4925451;29;20450;-79
2022/11/15 07:33:01;;;;;;;24.80;23.10;;;8.40;99.90;;;;;;4926600;29;20545;-79
2022/11/15 07:35:29;;;;;;;26.57;24.60;;;8.40;99.90;;;;;;4920674;29;20462;-80
2022/11/15 07:37:57;;;;;;;26.97;24.70;;;8.40;99.90;;;;;;4917728;29;20455;-80
2022/11/15 07:40:25;;;;;;;24.77;22.80;;;8.50;99.90;;;;;;4919689;29;20490;-80
2022/11/15 07:42:56;;;;;;;23.70;21.57;;;8.60;99.90;;;;;;4933080;29;20450;-80
2022/11/15 07:45:26;;;;;;;26.33;23.80;;;8.60;99.90;;;;;;4933157;29;20462;-80
2022/11/15 07:47:53;;;;;;;24.10;22.00;;;8.90;99.90;;;;;;4934960;29;20443;-79
2022/11/15 07:50:20;;;;;;;23.07;21.00;;;9.50;99.90;;;;;;4930081;29;20452;-81
2022/11/15 07:52:47;;;;;;;24.70;22.83;;;10.10;99.90;;;;;;4930769;29;20543;-83
2022/11/15 07:55:13;;;;;;;19.77;18.17;;;10.70;99.90;;;;;;4919853;29;20510;-83
2022/11/15 07:57:40;;;;;;;21.40;19.70;;;11.50;99.90;;;;;;4918114;29;20454;-84
2022/11/15 08:00:10;;;;;;;20.93;19.00;;;12.30;99.90;;;;;;4925993;29;20493;-84
2022/11/15 08:02:37;;;;;;;21.10;19.40;;;12.20;99.90;;;;;;4939993;29;20775;-84
2022/11/15 08:05:04;;;;;;;20.23;18.33;;;12.10;99.90;;;;;;4935837;29;20461;-78
2022/11/15 08:07:31;;;;;;;21.10;19.17;;;12.00;99.90;;;;;;4936064;29;20455;-80
2022/11/15 08:09:58;;;;;;;19.50;18.00;;;12.20;99.90;;;;;;4940158;29;20821;-81
2022/11/15 08:12:25;;;;;;;19.87;18.47;;;12.30;99.90;;;;;;4942280;29;20453;-80
2022/11/15 08:14:52;;;;;;;20.90;19.43;;;11.90;99.90;;;;;;4934481;29;20960;-77
2022/11/15 08:17:20;;;;;;;21.43;19.80;;;11.60;99.90;;;;;;4941045;29;20904;-78
2022/11/15 08:19:47;;;;;;;21.70;19.73;;;11.30;99.90;;;;;;4946203;29;20495;-84
2022/11/15 08:22:15;;;;;;;22.40;20.07;;;11.00;99.90;;;;;;4944893;29;20460;-81
2022/11/15 08:24:42;;;;;;;23.70;21.13;;;11.30;99.90;;;;;;4942936;29;20454;-87
2022/11/15 08:27:14;;;;;;;19.00;17.50;;;11.70;99.90;;;;;;4924212;29;20458;-88
2022/11/15 08:29:42;;;;;;;17.57;16.27;;;12.50;99.90;;;;;;4928377;29;20518;-84
2022/11/15 08:32:09;;;;;;;19.93;17.97;;;12.60;99.90;;;;;;4927422;29;20490;-80
2022/11/15 08:34:38;;;;;;;19.33;18.03;;;12.60;99.90;;;;;;4920613;29;20615;-77
2022/11/15 08:37:05;;;;;;;19.70;18.27;;;11.90;99.90;;;;;;4917493;29;20457;-76
2022/11/15 08:39:33;;;;;;;19.50;18.20;;;11.60;99.90;;;;;;4919558;29;20557;-78
2022/11/15 08:41:59;;;;;;;19.90;18.50;;;11.90;99.90;;;;;;4919201;29;20458;-79
2022/11/15 08:44:26;;;;;;;18.80;17.47;;;12.50;99.90;;;;;;4915955;29;20464;-78
2022/11/15 08:46:53;;;;;;;18.10;16.73;;;12.70;99.90;;;;;;4923542;29;21043;-79
2022/11/15 08:49:20;;;;;;;18.90;17.43;;;13.20;99.90;;;;;;4914531;29;20481;-78
2022/11/15 08:51:48;;;;;;;19.07;17.43;;;13.10;99.90;;;;;;4914707;29;20480;-77
2022/11/15 08:54:15;;;;;;;19.60;18.20;;;13.40;99.90;;;;;;4914622;29;21039;-78
2022/11/15 08:56:41;;;;;;;18.87;17.30;;;13.80;99.90;;;;;;4914378;29;20486;-76
2022/11/15 08:59:08;;;;;;;18.27;17.10;;;14.20;99.90;;;;;;4914328;29;20473;-76
2022/11/15 09:01:35;;;;;;;18.20;17.10;;;14.50;99.90;;;;;;4914402;29;20454;-77
2022/11/15 09:04:03;;;;;;;18.13;16.70;;;14.30;99.90;;;;;;4917127;29;20485;-78
2022/11/15 09:06:30;;;;;;;17.43;16.13;;;14.20;99.90;;;;;;4915594;29;20486;-80
2022/11/15 09:08:58;;;;;;;18.27;17.07;;;13.90;99.90;;;;;;4915147;29;20456;-79
2022/11/15 09:11:26;;;;;;;18.00;16.70;;;14.20;99.90;;;;;;4914222;29;20454;-78
2022/11/15 09:13:53;;;;;;;19.13;17.60;;;14.60;99.90;;;;;;4914083;29;20542;-77
2022/11/15 09:16:19;;;;;;;19.97;17.97;;;15.10;99.90;;;;;;4913859;29;20477;-78
2022/11/15 09:18:46;;;;;;;17.43;16.30;;;16.00;99.90;;;;;;4914150;29;20462;-78
2022/11/15 09:21:13;;;;;;;17.40;16.17;;;15.50;99.90;;;;;;4914085;29;20497;-78
2022/11/15 09:23:40;;;;;;;16.80;15.60;;;15.50;99.90;;;;;;4914192;29;20454;-79
2022/11/15 09:26:08;;;;;;;16.60;15.50;;;15.30;99.90;;;;;;4913750;29;20462;-78
2022/11/15 09:28:36;;;;;;;17.63;16.37;;;14.50;99.90;;;;;;4914213;29;20455;-78
2022/11/15 09:31:05;;;;;;;17.20;16.20;;;14.20;99.90;;;;;;4913674;29;20450;-79
2022/11/15 09:33:32;;;;;;;17.83;16.70;;;14.10;99.90;;;;;;4914190;29;20459;-79
2022/11/15 09:36:02;;;;;;;18.40;16.83;;;14.00;99.90;;;;;;4913275;29;20461;-78
2022/11/15 09:38:29;;;;;;;17.93;16.53;;;13.90;99.90;;;;;;4914014;29;20458;-78
2022/11/15 09:41:16;;;;;;;18.60;17.00;;;14.40;99.90;;;;;;4913896;29;20517;-78
2022/11/15 09:43:53;;;;;;;18.70;17.23;;;15.00;99.90;;;;;;4914070;29;20464;-79
2022/11/15 09:46:29;;;;;;;17.43;16.20;;;15.50;99.90;;;;;;4913810;29;20454;-79
2022/11/15 09:48:57;;;;;;;15.67;14.67;;;15.90;99.90;;;;;;4913596;29;20450;-77
2022/11/15 09:51:29;;;;;;;17.43;16.17;;;15.80;99.90;;;;;;4913582;29;20455;-77
2022/11/15 09:54:06;;;;;;;16.50;15.40;;;15.60;99.90;;;;;;4913476;29;20464;-79
2022/11/15 09:56:37;;;;;;;18.67;16.87;;;15.80;99.90;;;;;;4913437;29;20458;-80
2022/11/15 09:59:23;;;;;;;17.30;15.73;;;15.90;99.90;;;;;;4913457;29;20458;-79
2022/11/15 10:01:58;;;;;;;19.63;17.90;;;16.20;99.90;;;;;;4913908;29;20453;-78
2022/11/15 10:04:26;;;;;;;20.57;18.77;;;16.90;99.90;;;;;;4913239;29;20450;-78
2022/11/15 10:07:00;;;;;;;20.07;18.30;;;17.40;99.90;;;;;;4913644;29;20462;-79
2022/11/15 10:09:33;;;;;;;19.77;18.30;;;17.20;99.90;;;;;;4913636;29;20458;-79
2022/11/15 10:12:01;;;;;;;28.37;18.07;;;16.70;99.90;;;;;;4913863;29;20454;-80
2022/11/15 10:14:31;;;;;;;19.57;17.97;;;16.20;99.90;;;;;;4913420;29;20459;-79
2022/11/15 10:17:17;;;;;;;18.40;16.80;;;16.00;99.90;;;;;;4913196;29;20477;-79
2022/11/15 10:19:56;;;;;;;18.60;17.17;;;16.00;99.90;;;;;;4913696;29;20984;-79
2022/11/15 10:22:28;;;;;;;18.23;16.90;;;16.20;99.90;;;;;;4913391;29;20458;-79
2022/11/15 10:25:15;;;;;;;17.40;15.90;;;16.00;99.90;;;;;;4913264;29;20450;-78
2022/11/15 10:27:48;;;;;;;15.27;14.07;;;15.80;99.90;;;;;;4913921;29;20463;-79
2022/11/15 10:30:17;;;;;;;14.67;13.77;;;15.50;99.90;;;;;;4914061;29;20450;-80
2022/11/15 10:32:46;;;;;;;14.87;13.67;;;15.30;99.90;;;;;;4914656;29;20482;-82
2022/11/15 10:35:25;;;;;;;15.27;13.83;;;15.30;99.90;;;;;;4914175;29;20453;-79
2022/11/15 10:37:51;;;;;;;16.63;14.30;;;15.30;99.90;;;;;;4913535;29;20938;-79
2022/11/15 10:40:21;;;;;;;15.40;14.47;;;15.40;99.90;;;;;;4913994;29;20494;-80
2022/11/15 10:43:04;;;;;;;15.50;14.50;;;15.60;99.90;;;;;;4913543;29;20454;-80
2022/11/15 10:45:33;;;;;;;15.70;14.57;;;15.60;99.90;;;;;;4913947;29;20816;-80
2022/11/15 10:48:23;;;;;;;16.27;14.80;;;15.50;99.90;;;;;;4916224;29;20945;-80
2022/11/15 10:50:52;;;;;;;15.80;14.80;;;15.70;99.90;;;;;;4916950;29;20936;-80
2022/11/15 10:53:30;;;;;;;17.43;15.60;;;15.70;99.90;;;;;;4917108;29;20501;-80
2022/11/15 10:56:00;;;;;;;15.93;14.83;;;15.70;99.90;;;;;;4917441;29;20454;-80
2022/11/15 10:58:40;;;;;;;17.07;15.70;;;15.90;99.90;;;;;;4917505;29;20841;-81
2022/11/15 11:01:13;;;;;;;16.77;15.50;;;15.80;99.90;;;;;;4917959;29;20489;-80
2022/11/15 11:03:41;;;;;;;16.57;15.40;;;15.90;99.90;;;;;;4917978;29;20465;-80
2022/11/15 11:06:11;;;;;;;17.33;16.30;;;16.00;99.90;;;;;;4917300;29;20454;-79
2022/11/15 11:08:38;;;;;;;16.23;15.10;;;16.00;99.90;;;;;;4917870;29;20454;-81
2022/11/15 11:11:06;;;;;;;15.20;14.20;;;15.80;99.90;;;;;;4917136;29;20450;-79
2022/11/15 11:13:35;;;;;;;14.40;13.30;;;15.80;99.90;;;;;;4918200;29;20454;-81
2022/11/15 11:16:30;;;;;;;13.80;13.00;;;15.70;99.90;;;;;;4917963;29;20465;-81
2022/11/15 11:19:04;;;;;;;14.07;13.03;;;15.50;99.90;;;;;;4915594;29;20478;-81
2022/11/15 11:21:41;;;;;;;17.30;13.90;;;15.50;99.90;;;;;;4916945;29;20485;-80
2022/11/15 11:24:16;;;;;;;14.80;13.90;;;15.50;99.90;;;;;;4917582;29;20465;-80
2022/11/15 11:26:50;;;;;;;13.97;12.97;;;15.50;99.90;;;;;;4918164;29;20453;-81
2022/11/15 11:29:28;;;;;;;13.20;12.20;;;15.80;99.90;;;;;;4918040;29;20437;-79
2022/11/15 11:32:01;;;;;;;13.33;12.57;;;15.90;99.90;;;;;;4918463;29;20485;-80
2022/11/15 11:34:44;;;;;;;13.50;12.80;;;16.10;99.90;;;;;;4917982;29;20474;-79
2022/11/15 11:37:18;;;;;;;14.63;13.40;;;16.30;99.90;;;;;;4916309;29;20451;-79
2022/11/15 11:39:57;;;;;;;13.87;12.87;;;16.50;99.90;;;;;;4916792;29;20515;-81
2022/11/15 11:42:35;;;;;;;13.90;13.03;;;16.40;99.90;;;;;;4917826;29;20461;-81
2022/11/15 11:45:20;;;;;;;13.60;12.60;;;16.50;99.90;;;;;;4916396;29;20450;-80
2022/11/15 11:47:57;;;;;;;14.70;13.13;;;16.40;99.90;;;;;;4918110;29;20461;-80
2022/11/15 11:50:27;;;;;;;13.30;12.60;;;16.50;99.90;;;;;;4918049;29;20446;-81
2022/11/15 11:52:59;;;;;;;13.73;13.03;;;16.40;99.90;;;;;;4916881;29;20454;-80
2022/11/15 11:55:30;;;;;;;13.67;12.97;;;16.40;99.90;;;;;;4916849;29;20457;-81
2022/11/15 11:58:05;;;;;;;14.30;13.53;;;16.40;99.90;;;;;;4916496;29;20938;-81
2022/11/15 12:00:39;;;;;;;14.30;13.40;;;16.40;99.90;;;;;;4917272;29;20496;-82
2022/11/15 12:03:15;;;;;;;15.60;14.60;;;16.40;99.90;;;;;;4918017;29;20525;-81
2022/11/15 12:05:44;;;;;;;16.20;15.30;;;16.40;99.90;;;;;;4917569;29;20455;-81
2022/11/15 12:08:36;;;;;;;18.83;17.33;;;16.20;99.90;;;;;;4917368;29;20461;-77
2022/11/15 12:11:11;;;;;;;17.87;16.57;;;16.40;99.90;;;;;;4925542;29;20463;-81
2022/11/15 12:13:39;;;;;;;21.07;18.37;;;16.70;99.90;;;;;;4933204;29;20719;-78
2022/11/15 12:16:12;;;;;;;18.70;17.20;;;16.70;99.90;;;;;;4929828;29;20446;-78
2022/11/15 12:18:45;;;;;;;19.80;18.00;;;16.80;99.90;;;;;;4932704;29;20451;-80
2022/11/15 12:21:19;;;;;;;18.53;17.13;;;16.80;99.90;;;;;;4921682;29;20542;-81
2022/11/15 12:23:53;;;;;;;17.00;15.80;;;16.70;99.90;;;;;;4916649;29;20461;-81
2022/11/15 12:26:23;;;;;;;16.47;15.07;;;16.50;99.90;;;;;;4915761;29;20458;-81
2022/11/15 12:28:57;;;;;;;17.33;15.80;;;16.20;99.90;;;;;;4915612;29;20462;-82
2022/11/15 12:31:31;;;;;;;15.33;14.30;;;16.10;99.90;;;;;;4916173;29;21010;-82
2022/11/15 12:34:01;;;;;;;16.60;15.10;;;16.00;99.90;;;;;;4916258;29;20443;-80
2022/11/15 12:36:37;;;;;;;17.67;16.33;;;16.00;99.90;;;;;;4915971;29;20458;-81
2022/11/15 12:39:05;;;;;;;17.17;16.00;;;16.00;99.90;;;;;;4915204;29;20453;-80
2022/11/15 12:41:34;;;;;;;15.23;14.23;;;15.90;99.90;;;;;;4915497;29;20889;-82
2022/11/15 12:44:01;;;;;;;16.73;15.37;;;15.80;99.90;;;;;;4915688;29;20453;-81
2022/11/15 12:47:00;;;;;;;17.23;15.80;;;15.70;99.90;;;;;;4915059;29;20446;-82
2022/11/15 12:49:48;;;;;;;14.00;13.10;;;15.60;99.90;;;;;;4914960;29;20457;-80
2022/11/15 12:52:15;;;;;;;15.70;14.80;;;15.60;99.90;;;;;;4914920;29;20529;-80
2022/11/15 12:55:06;;;;;;;15.10;14.20;;;15.60;99.90;;;;;;4914784;29;20461;-82
2022/11/15 12:57:41;;;;;;;14.43;13.43;;;15.60;99.90;;;;;;4916100;29;20522;-82
2022/11/15 13:00:47;;;;;;;15.25;14.20;;;15.70;99.90;;;;;;4916167;29;21113;-82
2022/11/15 13:03:35;;;;;;;15.03;13.93;;;15.80;99.90;;;;;;4915340;29;20801;-81
2022/11/15 13:06:06;;;;;;;15.23;14.00;;;15.80;99.90;;;;;;4911387;29;20493;-82
2022/11/15 13:08:51;;;;;;;15.37;14.47;;;15.80;99.90;;;;;;4916349;29;20459;-82
2022/11/15 13:11:48;;;;;;;14.57;13.77;;;15.60;99.90;;;;;;4915890;29;20518;-82
2022/11/15 13:14:41;;;;;;;15.50;14.63;;;15.60;99.90;;;;;;4915349;29;20801;-82
2022/11/15 13:17:30;;;;;;;14.07;13.27;;;15.50;99.90;;;;;;4914419;29;20505;-82
2022/11/15 13:20:19;;;;;;;13.87;13.07;;;15.50;99.90;;;;;;4914764;29;20864;-80
2022/11/15 13:22:52;;;;;;;14.63;13.50;;;15.50;99.90;;;;;;4915237;29;20469;-82
2022/11/15 13:25:49;;;;;;;13.13;12.30;;;15.50;99.90;;;;;;4914991;29;20499;-83
2022/11/15 13:28:25;;;;;;;13.83;13.13;;;15.50;99.90;;;;;;4915217;29;20446;-82
2022/11/15 13:30:54;;;;;;;14.27;13.30;;;15.50;99.90;;;;;;4915001;29;20572;-82
2022/11/15 13:33:24;;;;;;;14.30;13.40;;;15.40;99.90;;;;;;4914932;29;20695;-83
2022/11/15 13:35:55;;;;;;;14.10;13.10;;;15.40;99.90;;;;;;4914878;29;20447;-81
2022/11/15 13:38:29;;;;;;;15.20;14.20;;;15.40;99.90;;;;;;4914817;29;20980;-82
2022/11/15 13:40:57;;;;;;;13.73;13.03;;;15.30;99.90;;;;;;4914969;29;20544;-82
2022/11/15 13:43:32;;;;;;;15.27;14.10;;;15.30;99.90;;;;;;4914389;29;20450;-82
2022/11/15 13:46:13;;;;;;;15.37;14.47;;;15.30;99.90;;;;;;4914849;29;20454;-82
2022/11/15 13:48:40;;;;;;;16.37;15.27;;;15.60;99.90;;;;;;4915970;29;20472;-82
2022/11/15 13:51:12;;;;;;;16.50;15.50;;;15.30;99.90;;;;;;4915541;29;20816;-82
2022/11/15 13:53:46;;;;;;;17.33;16.00;;;15.30;99.90;;;;;;4914461;29;20896;-82
2022/11/15 13:56:13;;;;;;;15.87;14.77;;;15.30;99.90;;;;;;4915303;29;20464;-84
2022/11/15 13:58:41;;;;;;;15.43;14.13;;;15.20;99.90;;;;;;4914884;29;20457;-84
2022/11/15 14:01:14;;;;;;;16.57;15.50;;;15.40;99.90;;;;;;4915314;29;20545;-84
2022/11/15 14:03:52;;;;;;;15.27;14.23;;;15.30;99.90;;;;;;4914731;29;20466;-83
2022/11/15 14:06:22;;;;;;;15.40;14.60;;;15.20;99.90;;;;;;4915015;29;20552;-84
2022/11/15 14:09:20;;;;;;;15.90;14.80;;;15.20;99.90;;;;;;4915354;29;20486;-84
2022/11/15 14:11:57;;;;;;;17.00;15.90;;;15.10;99.90;;;;;;4911684;29;20458;-85
2022/11/15 14:14:26;;;;;;;19.17;17.47;;;15.20;99.90;;;;;;4913621;29;20485;-83
2022/11/15 14:16:55;;;;;;;20.90;19.30;;;15.20;99.90;;;;;;4912751;29;20502;-81
2022/11/15 14:19:39;;;;;;;22.00;20.60;;;15.20;99.90;;;;;;4912823;29;20447;-78
2022/11/15 14:22:11;;;;;;;20.77;19.30;;;14.90;99.90;;;;;;4914407;29;20486;-77
2022/11/15 14:24:40;;;;;;;20.23;18.73;;;14.60;99.90;;;;;;4916779;29;20462;-78
2022/11/15 14:27:22;;;;;;;22.40;21.00;;;14.40;99.90;;;;;;4916850;29;20807;-78
2022/11/15 14:29:49;;;;;;;22.53;20.60;;;14.30;99.90;;;;;;4916889;29;20818;-80
2022/11/15 14:32:18;;;;;;;23.37;21.37;;;14.20;99.90;;;;;;4916867;29;20482;-79
2022/11/15 14:34:45;;;;;;;36.47;25.90;;;14.20;99.90;;;;;;4916756;29;21028;-81
2022/11/15 14:37:21;;;;;;;27.17;24.37;;;14.30;99.90;;;;;;4916838;29;20446;-81
2022/11/15 14:39:49;;;;;;;25.20;22.63;;;14.20;99.90;;;;;;4916983;29;20458;-81
2022/11/15 14:42:16;;;;;;;22.30;20.53;;;14.20;99.90;;;;;;4916672;29;20497;-82
2022/11/15 14:44:43;;;;;;;19.13;17.70;;;14.20;99.90;;;;;;4916730;29;20457;-82
2022/11/15 14:47:10;;;;;;;19.67;18.33;;;14.10;99.90;;;;;;4916910;29;20469;-82
2022/11/15 14:49:36;;;;;;;20.33;18.90;;;14.20;99.90;;;;;;4917116;29;20454;-82
2022/11/15 14:52:06;;;;;;;21.50;19.90;;;14.10;99.90;;;;;;4917007;29;20458;-81
2022/11/15 14:54:32;;;;;;;21.43;19.77;;;14.10;99.90;;;;;;4916009;29;20454;-82
2022/11/15 14:57:01;;;;;;;21.80;20.10;;;14.10;99.90;;;;;;4916889;29;20478;-83
2022/11/15 14:59:28;;;;;;;21.90;20.53;;;14.00;99.90;;;;;;4916840;29;20472;-84
2022/11/15 15:01:55;;;;;;;19.83;18.17;;;14.00;99.90;;;;;;4916229;29;20497;-78
2022/11/15 15:04:36;;;;;;;24.43;20.40;;;14.00;99.90;;;;;;4916574;29;20512;-80
2022/11/15 15:07:03;;;;;;;22.83;20.93;;;14.00;99.90;;;;;;4913465;29;20825;-80
2022/11/15 15:09:30;;;;;;;24.47;22.10;;;14.00;99.90;;;;;;4916286;29;20450;-80
2022/11/15 15:11:57;;;;;;;20.77;19.23;;;14.00;99.90;;;;;;4910925;29;20450;-80
2022/11/15 15:14:25;;;;;;;21.97;20.20;;;13.90;99.90;;;;;;4906553;29;20443;-80